Time;durP1;ratioP1;P1;durP2;ratioP2;P2;SDS_P1;SDS_P2;PMS_P1;PMS_P2;Temp;Humidity;BMP_temperature;BMP_pressure;BME280_temperature;BME280_humidity;BME280_pressure;Samples;Min_cycle;Max_cycle;Signal;HPM_P1;HPM_P2
2023/10/05 00:01:12;;;;;;;3.10;0.70;;;;;;;11.84;100.00;100825.71;103987;1267;66807;-50
2023/10/05 00:03:44;;;;;;;2.10;0.80;;;;;;;11.83;100.00;100825.54;104355;1263;217165;-53
2023/10/05 00:06:15;;;;;;;3.70;0.70;;;;;;;11.83;100.00;100826.48;104575;1267;60696;-52
2023/10/05 00:08:47;;;;;;;2.50;0.50;;;;;;;11.83;100.00;100826.63;104101;1265;59229;-51
2023/10/05 00:11:28;;;;;;;4.60;0.70;;;;;;;11.83;100.00;100818.72;104407;1263;71070;-49
2023/10/05 00:13:59;;;;;;;0.90;0.60;;;;;;;11.84;100.00;100817.78;104099;1263;66327;-54
2023/10/05 00:16:36;;;;;;;5.30;0.70;;;;;;;11.85;100.00;100815.42;104182;1269;73063;-52
2023/10/05 00:19:15;;;;;;;4.50;0.70;;;;;;;11.85;100.00;100816.13;105031;1264;60380;-51
2023/10/05 00:21:56;;;;;;;3.10;0.70;;;;;;;11.85;100.00;100817.23;105990;1264;60248;-51
2023/10/05 00:24:37;;;;;;;1.10;0.70;;;;;;;11.85;100.00;100817.04;104442;1264;71570;-52
2023/10/05 00:27:09;;;;;;;3.40;0.80;;;;;;;11.83;100.00;100820.02;104303;1269;65991;-51
2023/10/05 00:29:45;;;;;;;2.70;0.70;;;;;;;11.80;100.00;100820.29;104175;1269;73150;-51
2023/10/05 00:32:19;;;;;;;1.90;0.60;;;;;;;11.76;100.00;100824.37;104041;1266;59781;-50
2023/10/05 00:35:08;;;;;;;3.40;0.80;;;;;;;11.72;100.00;100834.38;104980;1262;59574;-52
2023/10/05 00:37:36;;;;;;;2.00;0.80;;;;;;;11.70;100.00;100838.60;104468;1258;73112;-49
2023/10/05 00:40:05;;;;;;;1.40;0.70;;;;;;;11.68;100.00;100836.48;104443;1257;67110;-50
2023/10/05 00:42:33;;;;;;;2.30;0.70;;;;;;;11.66;100.00;100829.92;104369;1257;70763;-53
2023/10/05 00:45:05;;;;;;;2.60;0.60;;;;;;;11.61;100.00;100824.70;104279;1264;60864;-51
2023/10/05 00:47:32;;;;;;;4.80;0.90;;;;;;;11.58;100.00;100828.42;106294;1258;59998;-51
2023/10/05 00:50:01;;;;;;;1.10;0.60;;;;;;;11.56;100.00;100826.55;104468;1258;72067;-53
2023/10/05 00:52:30;;;;;;;3.20;1.40;;;;;;;11.54;100.00;100828.02;104371;1258;68096;-52
2023/10/05 00:54:59;;;;;;;2.90;0.50;;;;;;;11.54;100.00;100826.41;104447;1257;73181;-53
2023/10/05 00:57:28;;;;;;;3.50;0.70;;;;;;;11.55;100.00;100829.43;105502;1260;60330;-52
2023/10/05 01:02:35;;;;;;;1.40;0.70;;;;;;;11.56;100.00;100829.77;104399;1258;71931;-51
2023/10/05 01:05:16;;;;;;;1.60;0.80;;;;;;;11.57;100.00;100833.67;104401;1262;66028;-53
2023/10/05 01:07:49;;;;;;;1.10;0.80;;;;;;;11.59;100.00;100835.58;104367;1266;71217;-54
2023/10/05 01:11:01;;;;;;;1.70;0.60;;;;;;;11.60;100.00;100834.08;104512;1263;59726;-50
2023/10/05 01:13:32;;;;;;;3.40;0.80;;;;;;;11.61;100.00;100835.32;104306;1261;59691;-53
2023/10/05 01:16:19;;;;;;;2.70;1.10;;;;;;;11.62;100.00;100835.98;108541;1258;73039;-53
2023/10/05 01:18:47;;;;;;;4.90;0.70;;;;;;;11.61;100.00;100832.07;108618;1260;67761;-55
2023/10/05 01:21:17;;;;;;;2.50;0.70;;;;;;;11.60;100.00;100833.91;108617;1261;72737;-53
2023/10/05 01:23:48;;;;;;;3.70;0.60;;;;;;;11.58;100.00;100839.71;108684;1264;60281;-52
2023/10/05 01:26:16;;;;;;;2.40;0.60;;;;;;;11.58;100.00;100844.38;108593;1260;60110;-51
2023/10/05 01:28:43;;;;;;;1.80;0.80;;;;;;;11.57;100.00;100846.58;108679;1258;72438;-51
2023/10/05 01:31:21;;;;;;;3.80;0.70;;;;;;;11.57;100.00;100851.09;108505;1258;67404;-51
2023/10/05 01:33:48;;;;;;;1.10;0.60;;;;;;;11.56;100.00;100853.67;108660;1260;72468;-51
2023/10/05 01:36:17;;;;;;;2.30;0.70;;;;;;;11.55;100.00;100851.54;108567;1259;60151;-51
2023/10/05 01:38:45;;;;;;;2.70;0.80;;;;;;;11.55;100.00;100850.11;108566;1260;60168;-50
2023/10/05 01:41:20;;;;;;;3.90;0.80;;;;;;;11.53;100.00;100851.59;108645;1260;73081;-53
2023/10/05 01:43:49;;;;;;;1.50;0.70;;;;;;;11.51;100.00;100853.27;108589;1265;65691;-52
2023/10/05 01:46:16;;;;;;;3.10;0.80;;;;;;;11.49;100.00;100861.43;108674;1257;73159;-52
2023/10/05 01:48:44;;;;;;;3.20;0.70;;;;;;;11.48;100.00;100858.24;106209;1261;59758;-52
2023/10/05 01:51:19;;;;;;;6.90;1.30;;;;;;;11.46;100.00;100859.59;104640;1263;59731;-54
2023/10/05 01:53:51;;;;;;;4.70;0.80;;;;;;;11.42;100.00;100856.48;104395;1257;73496;-54
2023/10/05 01:56:20;;;;;;;2.10;0.80;;;;;;;11.37;100.00;100856.63;105257;1257;65626;-51
2023/10/05 01:58:55;;;;;;;2.10;0.90;;;;;;;11.34;100.00;100854.95;104646;1259;71471;-55
2023/10/05 02:01:22;;;;;;;2.80;0.80;;;;;;;11.30;100.00;100857.23;105121;1263;60375;-51
2023/10/05 02:03:57;;;;;;;1.30;0.90;;;;;;;11.27;100.00;100858.41;104745;1258;59729;-52
2023/10/05 02:06:28;;;;;;;2.90;0.80;;;;;;;11.24;100.00;100858.50;104872;1257;71899;-54
2023/10/05 02:08:56;;;;;;;1.70;0.70;;;;;;;11.23;100.00;100859.79;104466;1262;66747;-49
2023/10/05 02:11:24;;;;;;;2.50;0.80;;;;;;;11.21;100.00;100862.05;104658;1261;71450;-51
2023/10/05 02:13:52;;;;;;;2.90;0.90;;;;;;;11.19;100.00;100861.55;104585;1261;59745;-52
2023/10/05 02:16:21;;;;;;;3.00;0.70;;;;;;;11.16;100.00;100867.76;105703;1259;59867;-53
2023/10/05 02:18:49;;;;;;;3.40;1.20;;;;;;;11.16;100.00;100873.52;105288;1263;73016;-52
2023/10/05 02:21:17;;;;;;;2.40;0.90;;;;;;;11.15;100.00;100877.84;104964;1262;67433;-51
2023/10/05 02:23:47;;;;;;;8.80;0.90;;;;;;;11.15;100.00;100876.96;104662;1263;71167;-54
2023/10/05 02:26:33;;;;;;;4.60;1.10;;;;;;;11.15;100.00;100879.46;105115;1260;60827;-52
2023/10/05 02:29:13;;;;;;;2.00;1.00;;;;;;;11.12;100.00;100879.75;104603;1257;60086;-52
2023/10/05 02:31:57;;;;;;;5.00;0.90;;;;;;;11.09;100.00;100876.26;105534;1258;71647;-52
2023/10/05 02:34:28;;;;;;;1.80;1.00;;;;;;;11.04;100.00;100872.30;105653;1262;67125;-53
2023/10/05 02:36:56;;;;;;;2.20;1.00;;;;;;;11.01;100.00;100868.09;104858;1263;71474;-51
2023/10/05 02:39:24;;;;;;;3.40;1.00;;;;;;;10.97;100.00;100868.39;104877;1261;61343;-51
2023/10/05 02:41:54;;;;;;;2.60;0.90;;;;;;;10.94;100.00;100867.78;104928;1263;59628;-50
2023/10/05 02:46:49;;;;;;;5.00;0.90;;;;;;;10.88;100.00;100865.81;104420;1257;67070;-50
2023/10/05 02:49:23;;;;;;;2.40;0.80;;;;;;;10.86;100.00;100864.11;104698;1263;72725;-52
2023/10/05 02:51:52;;;;;;;2.10;0.80;;;;;;;10.83;100.00;100863.83;105470;1262;59760;-51
2023/10/05 02:54:24;;;;;;;1.40;1.20;;;;;;;10.79;100.00;100860.16;104552;1258;60108;-51
2023/10/05 02:56:54;;;;;;;7.00;2.00;;;;;;;10.79;100.00;100856.77;104667;1260;73129;-52
2023/10/05 02:59:29;;;;;;;3.70;1.30;;;;;;;10.78;100.00;100854.13;104498;1263;68890;-51
2023/10/05 03:02:00;;;;;;;2.50;1.10;;;;;;;10.75;100.00;100852.94;104821;1262;73187;-50
2023/10/05 03:04:44;;;;;;;3.50;1.20;;;;;;;10.72;100.00;100855.90;105170;1261;61414;-51
2023/10/05 03:07:17;;;;;;;3.50;0.90;;;;;;;10.70;100.00;100865.34;104640;1263;59630;-50
2023/10/05 03:09:47;;;;;;;4.30;1.30;;;;;;;10.67;100.00;100870.25;104471;1257;72870;-50
2023/10/05 03:12:14;;;;;;;2.10;0.90;;;;;;;10.64;100.00;100866.00;104443;1257;65698;-53
2023/10/05 03:14:45;;;;;;;4.90;0.90;;;;;;;10.63;100.00;100862.30;104428;1257;72779;-51
2023/10/05 03:17:16;;;;;;;2.70;0.90;;;;;;;10.59;100.00;100865.63;104582;1257;60481;-53
2023/10/05 03:19:43;;;;;;;1.30;0.70;;;;;;;10.57;100.00;100869.65;104293;1260;60198;-52
2023/10/05 03:22:14;;;;;;;2.10;0.70;;;;;;;10.54;100.00;100871.17;104511;1263;72964;-52
2023/10/05 03:24:44;;;;;;;5.20;0.80;;;;;;;10.53;100.00;100869.27;104453;1265;66871;-54
2023/10/05 03:27:13;;;;;;;2.50;0.70;;;;;;;10.52;100.00;100870.16;104486;1257;72612;-51
2023/10/05 03:29:45;;;;;;;4.10;0.90;;;;;;;10.53;100.00;100875.53;105491;1257;60470;-52
2023/10/05 03:32:14;;;;;;;5.50;1.10;;;;;;;10.53;100.00;100878.57;104752;1262;59712;-52
2023/10/05 03:34:55;;;;;;;4.00;0.80;;;;;;;10.52;100.00;100878.80;104780;1257;71893;-54
2023/10/05 03:37:24;;;;;;;4.10;1.00;;;;;;;10.50;100.00;100877.05;104667;1263;66765;-51
2023/10/05 03:39:53;;;;;;;2.60;0.90;;;;;;;10.49;100.00;100873.67;105604;1263;73133;-50
2023/10/05 03:42:24;;;;;;;2.70;0.90;;;;;;;10.48;100.00;100876.91;104264;1263;59681;-48
2023/10/05 03:45:03;;;;;;;4.50;1.10;;;;;;;10.48;100.00;100878.90;107355;1262;59734;-50
2023/10/05 03:47:39;;;;;;;2.20;0.80;;;;;;;10.48;100.00;100882.67;104780;1263;73405;-54
2023/10/05 03:50:16;;;;;;;3.40;0.90;;;;;;;10.45;100.00;100882.77;104355;1257;67077;-50
2023/10/05 03:52:47;;;;;;;6.00;1.00;;;;;;;10.42;100.00;100878.02;105285;1263;72702;-51
2023/10/05 03:55:20;;;;;;;3.50;0.90;;;;;;;10.40;100.00;100874.13;105047;1263;62172;-52
2023/10/05 03:57:51;;;;;;;4.40;0.80;;;;;;;10.38;100.00;100874.21;104309;1263;59643;-53
2023/10/05 04:02:52;;;;;;;1.60;0.80;;;;;;;10.35;100.00;100874.47;104586;1261;66006;-53
2023/10/05 04:05:22;;;;;;;1.80;0.70;;;;;;;10.35;100.00;100873.39;104928;1262;71724;-52
2023/10/05 04:07:52;;;;;;;6.10;1.30;;;;;;;10.33;100.00;100870.58;104676;1257;61758;-51
2023/10/05 04:10:43;;;;;;;1.60;0.80;;;;;;;10.32;100.00;100877.22;104478;1263;60545;-49
2023/10/05 04:13:11;;;;;;;4.10;1.20;;;;;;;10.31;100.00;100876.01;104697;1263;73961;-53
2023/10/05 04:15:39;;;;;;;4.70;1.10;;;;;;;10.30;100.00;100879.46;108689;1257;65901;-49
2023/10/05 04:18:15;;;;;;;3.40;1.00;;;;;;;10.27;100.00;100882.05;108601;1261;72670;-52
2023/10/05 04:20:47;;;;;;;2.70;1.20;;;;;;;10.27;100.00;100885.65;108769;1262;63334;-53
2023/10/05 04:23:25;;;;;;;1.80;1.30;;;;;;;10.25;100.00;100888.91;108738;1260;59983;-52
2023/10/05 04:25:56;;;;;;;6.60;1.20;;;;;;;10.22;100.00;100889.17;108820;1257;74833;-54
2023/10/05 04:28:39;;;;;;;2.70;1.20;;;;;;;10.21;100.00;100900.68;108656;1257;68902;-53
2023/10/05 04:31:13;;;;;;;4.70;1.20;;;;;;;10.20;100.00;100899.11;108741;1257;72693;-54
2023/10/05 04:33:43;;;;;;;9.40;1.30;;;;;;;10.20;100.00;100901.25;108757;1257;60504;-52
2023/10/05 04:36:11;;;;;;;1.90;0.90;;;;;;;10.21;100.00;100904.98;108557;1262;58845;-53
2023/10/05 04:38:38;;;;;;;2.40;0.80;;;;;;;10.21;100.00;100903.73;108604;1257;75677;-52
2023/10/05 04:41:06;;;;;;;3.80;1.20;;;;;;;10.24;100.00;100908.87;108562;1258;65867;-52
2023/10/05 04:43:34;;;;;;;7.90;1.60;;;;;;;10.26;100.00;100907.92;108670;1257;72720;-52
2023/10/05 04:46:05;;;;;;;4.70;0.80;;;;;;;10.28;100.00;100909.83;108626;1257;60393;-52
2023/10/05 04:48:33;;;;;;;1.70;1.00;;;;;;;10.31;100.00;100901.85;108011;1262;58881;-51
2023/10/05 04:51:05;;;;;;;2.20;0.90;;;;;;;10.33;100.00;100901.25;104642;1263;73912;-51
2023/10/05 04:53:37;;;;;;;2.40;1.20;;;;;;;10.36;100.00;100907.64;104669;1263;67119;-52
2023/10/05 04:56:14;;;;;;;5.20;1.10;;;;;;;10.39;100.00;100907.88;108627;1262;71243;-51
2023/10/05 04:58:53;;;;;;;5.20;1.10;;;;;;;10.41;100.00;100908.90;106211;1257;60670;-50
2023/10/05 05:01:35;;;;;;;2.00;1.00;;;;;;;10.43;100.00;100911.89;104577;1261;60558;-50
2023/10/05 05:04:27;;;;;;;4.90;1.10;;;;;;;10.43;100.00;100920.33;105249;1257;73831;-51
2023/10/05 05:07:00;;;;;;;4.80;1.20;;;;;;;10.44;100.00;100922.45;104836;1263;68031;-54
2023/10/05 05:09:35;;;;;;;7.70;1.50;;;;;;;10.45;100.00;100915.98;104510;1260;71367;-51
2023/10/05 05:12:08;;;;;;;4.70;1.20;;;;;;;10.47;100.00;100916.42;105033;1257;62217;-50
2023/10/05 05:14:45;;;;;;;3.70;0.90;;;;;;;10.52;100.00;100915.77;104403;1264;60683;-50
2023/10/05 05:17:18;;;;;;;4.80;1.00;;;;;;;10.58;100.00;100917.36;104361;1262;72651;-50
2023/10/05 05:19:46;;;;;;;3.50;1.10;;;;;;;10.66;100.00;100922.52;104502;1262;67161;-50
2023/10/05 05:22:14;;;;;;;1.80;1.00;;;;;;;10.75;100.00;100924.41;104901;1262;72709;-51
2023/10/05 05:24:43;;;;;;;6.50;1.10;;;;;;;10.85;100.00;100924.45;104459;1264;60558;-53
2023/10/05 05:29:45;;;;;;;5.00;1.00;;;;;;;11.10;100.00;100917.00;104478;1258;72963;-51
2023/10/05 05:32:13;;;;;;;4.40;1.10;;;;;;;11.23;100.00;100911.39;104560;1263;65726;-51
2023/10/05 05:34:50;;;;;;;2.90;1.20;;;;;;;11.33;100.00;100911.92;104337;1264;74905;-52
2023/10/05 05:37:28;;;;;;;2.90;1.20;;;;;;;11.43;100.00;100920.95;104461;1258;60481;-53
2023/10/05 05:39:58;;;;;;;5.10;1.20;;;;;;;11.53;100.00;100924.20;104870;1262;61135;-52
2023/10/05 05:42:30;;;;;;;3.00;1.00;;;;;;;11.62;100.00;100924.46;105643;1261;71690;-50
2023/10/05 05:44:57;;;;;;;3.70;1.00;;;;;;;11.68;100.00;100926.95;104506;1264;66035;-51
2023/10/05 05:47:31;;;;;;;5.30;1.80;;;;;;;11.70;100.00;100927.04;104425;1270;73154;-52
2023/10/05 05:50:00;;;;;;;4.10;1.30;;;;;;;11.73;100.00;100928.21;104499;1263;60574;-53
2023/10/05 05:52:28;;;;;;;5.50;1.10;;;;;;;11.76;100.00;100925.25;104728;1257;60603;-52
2023/10/05 05:54:58;;;;;;;4.30;1.10;;;;;;;11.79;100.00;100926.23;106876;1262;74366;-50
2023/10/05 05:57:25;;;;;;;3.00;0.90;;;;;;;11.84;100.00;100931.09;104450;1264;66014;-51
2023/10/05 05:59:53;;;;;;;4.10;1.20;;;;;;;11.88;100.00;100930.08;104480;1263;73250;-52
2023/10/05 06:02:20;;;;;;;4.80;1.20;;;;;;;11.93;100.00;100933.13;104307;1263;60911;-53
2023/10/05 06:04:49;;;;;;;2.60;0.90;;;;;;;11.98;100.00;100932.58;107208;1262;58956;-50
2023/10/05 06:07:17;;;;;;;3.40;1.00;;;;;;;12.04;100.00;100931.83;104979;1257;72675;-50
2023/10/05 06:09:45;;;;;;;5.20;1.10;;;;;;;12.10;100.00;100936.09;104848;1263;65818;-51
2023/10/05 06:12:16;;;;;;;5.10;1.10;;;;;;;12.15;100.00;100935.02;104404;1266;71839;-54
2023/10/05 06:14:43;;;;;;;3.60;1.00;;;;;;;12.19;100.00;100939.91;104619;1262;60508;-51
2023/10/05 06:17:10;;;;;;;6.10;1.20;;;;;;;12.23;100.00;100946.09;104428;1263;60967;-52
2023/10/05 06:19:39;;;;;;;7.20;1.10;;;;;;;12.27;100.00;100943.59;104492;1262;72680;-51
2023/10/05 06:22:06;;;;;;;3.60;1.40;;;;;;;12.30;100.00;100948.16;105229;1261;65691;-52
2023/10/05 06:24:42;;;;;;;3.60;1.00;;;;;;;12.35;100.00;100949.22;104550;1264;73385;-51
2023/10/05 06:27:09;;;;;;;4.30;1.00;;;;;;;12.39;100.00;100951.80;105435;1260;60820;-54
2023/10/05 06:29:37;;;;;;;2.60;0.90;;;;;;;12.41;100.00;100948.45;104426;1257;60655;-53
2023/10/05 06:32:04;;;;;;;7.20;1.20;;;;;;;12.46;100.00;100948.10;104376;1262;74319;-50
2023/10/05 06:34:32;;;;;;;2.10;1.10;;;;;;;12.50;100.00;100949.73;105136;1263;66813;-53
2023/10/05 06:37:01;;;;;;;4.20;1.40;;;;;;;12.55;100.00;100947.23;104266;1263;73756;-52
2023/10/05 06:39:33;;;;;;;5.70;1.10;;;;;;;12.60;100.00;100950.10;104438;1263;60571;-51
2023/10/05 06:42:02;;;;;;;5.90;1.10;;;;;;;12.65;100.00;100952.63;104696;1261;60587;-50
2023/10/05 06:44:30;;;;;;;4.20;1.20;;;;;;;12.72;100.00;100953.80;104695;1263;73934;-52
2023/10/05 06:47:02;;;;;;;5.10;1.20;;;;;;;12.78;100.00;100954.42;104652;1263;67425;-51
2023/10/05 06:49:32;;;;;;;1.90;1.20;;;;;;;12.84;100.00;100956.58;104761;1262;73095;-52
2023/10/05 06:51:59;;;;;;;4.40;1.30;;;;;;;12.87;100.00;100956.09;104581;1262;60580;-53
2023/10/05 06:54:27;;;;;;;5.40;0.90;;;;;;;12.90;100.00;100963.54;104528;1257;60628;-50
2023/10/05 06:56:55;;;;;;;7.00;0.90;;;;;;;12.92;100.00;100969.42;104441;1262;74130;-51
2023/10/05 06:59:25;;;;;;;3.70;0.90;;;;;;;12.95;100.00;100969.84;104535;1264;65748;-53
2023/10/05 07:01:52;;;;;;;2.60;0.90;;;;;;;13.00;100.00;100967.84;104487;1262;73068;-52
2023/10/05 07:04:24;;;;;;;3.10;1.10;;;;;;;13.08;100.00;100967.16;104360;1260;60503;-51
2023/10/05 07:06:52;;;;;;;4.90;1.10;;;;;;;13.17;100.00;100969.52;104514;1264;62236;-52
2023/10/05 07:09:24;;;;;;;2.90;1.00;;;;;;;13.25;100.00;100966.52;104581;1258;74225;-52
2023/10/05 07:11:51;;;;;;;2.60;1.00;;;;;;;13.32;100.00;100962.08;104577;1263;66041;-52
2023/10/05 07:14:19;;;;;;;3.90;1.20;;;;;;;13.38;100.00;100961.48;104627;1263;73235;-53
2023/10/05 07:16:47;;;;;;;3.80;0.90;;;;;;;13.46;100.00;100960.60;108667;1257;58868;-52
2023/10/05 07:19:14;;;;;;;4.20;0.90;;;;;;;13.54;100.00;100959.19;108644;1258;58669;-53
2023/10/05 07:21:41;;;;;;;1.70;0.90;;;;;;;13.62;100.00;100958.14;108649;1257;72659;-53
2023/10/05 07:24:09;;;;;;;5.90;1.50;;;;;;;13.67;100.00;100954.50;108583;1257;66904;-53
2023/10/05 07:26:37;;;;;;;4.60;1.30;;;;;;;13.74;100.00;100956.19;108589;1258;72761;-53
2023/10/05 07:29:04;;;;;;;2.00;0.90;;;;;;;13.80;100.00;100950.36;108674;1257;63769;-53
2023/10/05 07:31:50;;;;;;;5.40;1.00;;;;;;;13.87;100.00;100944.98;108764;1257;59511;-54
2023/10/05 07:34:17;;;;;;;4.60;1.00;;;;;;;13.94;100.00;100941.81;108665;1257;74031;-54
2023/10/05 07:36:45;;;;;;;2.90;1.20;;;;;;;14.02;100.00;100938.55;105802;1257;69196;-53
2023/10/05 07:39:14;;;;;;;5.00;1.20;;;;;;;14.13;100.00;100937.70;104478;1258;72725;-52
2023/10/05 07:41:44;;;;;;;3.20;1.00;;;;;;;14.24;100.00;100935.23;104472;1260;60533;-54
2023/10/05 07:44:11;;;;;;;4.50;0.90;;;;;;;14.35;100.00;100938.16;108680;1257;60082;-52
2023/10/05 07:46:39;;;;;;;3.40;1.60;;;;;;;14.45;100.00;100934.13;108718;1260;73742;-52
2023/10/05 07:49:06;;;;;;;5.60;1.00;;;;;;;14.52;100.00;100932.02;107371;1258;65779;-55
2023/10/05 07:51:34;;;;;;;5.40;0.90;;;;;;;14.55;100.00;100931.69;104404;1261;72712;-55
2023/10/05 07:54:02;;;;;;;4.80;0.90;;;;;;;14.57;100.00;100932.30;104429;1258;60617;-50
2023/10/05 07:56:32;;;;;;;2.60;1.50;;;;;;;14.62;100.00;100925.23;104422;1258;60564;-51
2023/10/05 07:58:59;;;;;;;4.40;1.00;;;;;;;14.64;100.00;100922.38;104387;1260;74024;-54
2023/10/05 08:01:27;;;;;;;5.60;1.40;;;;;;;14.65;100.00;100925.98;104442;1257;66224;-51
2023/10/05 08:03:55;;;;;;;3.40;1.00;;;;;;;14.65;100.00;100926.88;104691;1260;70561;-51
2023/10/05 08:06:23;;;;;;;1.70;0.90;;;;;;;14.69;100.00;100918.91;105020;1264;61675;-54
2023/10/05 08:08:53;;;;;;;3.10;1.20;;;;;;;14.78;100.00;100920.85;104409;1258;60553;-51
2023/10/05 08:11:21;;;;;;;3.40;0.80;;;;;;;14.82;100.00;100914.34;104558;1259;75982;-53
2023/10/05 08:13:48;;;;;;;2.30;0.90;;;;;;;14.84;100.00;100912.80;104618;1263;66946;-52
2023/10/05 08:16:16;;;;;;;7.10;1.00;;;;;;;14.87;100.00;100913.75;104388;1263;71258;-51
2023/10/05 08:18:44;;;;;;;2.50;0.90;;;;;;;14.91;100.00;100909.38;104804;1261;60581;-51
2023/10/05 08:21:11;;;;;;;4.20;1.00;;;;;;;14.97;100.00;100910.51;104558;1263;60511;-51
2023/10/05 08:23:39;;;;;;;3.70;0.90;;;;;;;15.05;100.00;100908.50;104415;1257;72977;-51
2023/10/05 08:26:08;;;;;;;2.10;0.90;;;;;;;15.12;100.00;100911.39;104429;1257;67317;-52
2023/10/05 08:28:36;;;;;;;2.10;0.80;;;;;;;15.19;100.00;100906.92;104754;1260;71289;-52
2023/10/05 08:31:07;;;;;;;2.90;1.00;;;;;;;15.24;100.00;100902.00;104418;1263;60545;-50
2023/10/05 08:33:35;;;;;;;3.20;0.90;;;;;;;15.26;100.00;100898.09;104602;1257;61721;-52
2023/10/05 08:36:06;;;;;;;1.60;0.70;;;;;;;15.31;100.00;100899.66;104486;1259;72657;-54
2023/10/05 08:38:34;;;;;;;2.90;0.90;;;;;;;15.36;100.00;100897.23;105796;1263;66852;-52
2023/10/05 08:41:07;;;;;;;5.40;0.80;;;;;;;15.42;100.00;100900.54;104636;1262;73143;-53
2023/10/05 08:43:38;;;;;;;4.30;1.00;;;;;;;15.49;100.00;100898.54;104909;1263;60543;-53
2023/10/05 08:46:10;;;;;;;3.80;0.70;;;;;;;15.55;100.00;100895.94;104768;1264;60391;-54
2023/10/05 08:48:37;;;;;;;5.40;1.00;;;;;;;15.60;100.00;100892.27;104874;1257;72651;-55
2023/10/05 08:53:41;;;;;;;2.40;0.70;;;;;;;15.68;100.00;100889.10;104687;1256;73330;-53
2023/10/05 08:56:15;;;;;;;3.60;0.90;;;;;;;15.72;100.00;100889.45;105235;1263;62053;-54
2023/10/05 08:58:47;;;;;;;2.30;0.70;;;;;;;15.75;100.00;100886.59;104958;1263;60570;-54
2023/10/05 09:01:23;;;;;;;4.00;0.80;;;;;;;15.78;100.00;100879.70;104839;1258;73904;-49
2023/10/05 09:04:01;;;;;;;2.20;0.90;;;;;;;15.83;100.00;100879.79;104846;1263;66972;-52
2023/10/05 09:06:30;;;;;;;3.20;0.70;;;;;;;15.90;100.00;100878.56;104860;1263;72736;-51
2023/10/05 09:09:07;;;;;;;1.90;0.80;;;;;;;15.97;100.00;100878.41;104601;1261;60588;-50
2023/10/05 09:11:35;;;;;;;2.10;0.70;;;;;;;16.05;100.00;100879.77;106632;1263;58857;-52
2023/10/05 09:14:12;;;;;;;3.20;0.70;;;;;;;16.12;100.00;100875.73;104643;1264;72661;-51
2023/10/05 09:16:41;;;;;;;2.90;0.80;;;;;;;16.18;100.00;100876.50;105359;1264;66982;-52
2023/10/05 09:19:17;;;;;;;3.10;1.10;;;;;;;16.19;100.00;100878.05;105406;1257;71723;-52
2023/10/05 09:24:26;;;;;;;2.60;0.80;;;;;;;16.20;100.00;100870.08;105179;1256;60389;-52
2023/10/05 09:26:55;;;;;;;4.80;1.10;;;;;;;16.18;100.00;100872.54;104995;1258;73913;-53
2023/10/05 09:29:28;;;;;;;2.30;0.90;;;;;;;16.14;100.00;100870.39;105330;1251;65146;-52
2023/10/05 09:31:56;;;;;;;3.00;1.00;;;;;;;16.12;100.00;100872.28;109184;1253;74872;-53
2023/10/05 09:34:49;;;;;;;1.90;0.60;;;;;;;16.11;100.00;100871.81;106820;1253;60585;-53
2023/10/05 09:37:18;;;;;;;1.70;0.80;;;;;;;16.13;100.00;100868.65;105314;1255;60488;-51
2023/10/05 09:39:54;;;;;;;2.60;0.70;;;;;;;16.12;100.00;100865.59;106240;1251;72630;-52
2023/10/05 09:42:28;;;;;;;6.20;0.70;;;;;;;16.14;100.00;100862.81;105255;1256;67540;-51
2023/10/05 09:45:01;;;;;;;3.00;1.00;;;;;;;16.15;100.00;100860.71;105551;1254;73329;-52
2023/10/05 09:47:33;;;;;;;1.90;0.90;;;;;;;16.19;100.00;100858.88;105403;1255;60501;-55
2023/10/05 09:50:10;;;;;;;2.00;0.70;;;;;;;16.23;100.00;100855.59;106110;1253;59191;-52
2023/10/05 09:52:38;;;;;;;2.90;0.80;;;;;;;16.26;100.00;100852.69;105351;1251;74610;-54
2023/10/05 09:55:06;;;;;;;2.00;0.80;;;;;;;16.30;100.00;100850.91;105518;1251;65876;-51
2023/10/05 09:57:41;;;;;;;1.60;0.80;;;;;;;16.31;100.00;100851.36;105901;1255;74032;-52
2023/10/05 10:00:27;;;;;;;3.20;0.80;;;;;;;16.32;100.00;100852.40;105270;1251;60508;-56
2023/10/05 10:03:02;;;;;;;3.40;0.60;;;;;;;16.34;100.00;100850.80;106001;1251;60559;-54
2023/10/05 10:05:36;;;;;;;;;;;;;;;16.36;100.00;100846.74;105206;1257;73926;-52
2023/10/05 10:08:23;;;;;;;4.40;0.70;;;;;;;16.36;100.00;100844.93;105230;1256;67907;-52
2023/10/05 10:11:03;;;;;;;3.20;1.00;;;;;;;16.36;100.00;100840.22;105646;1256;73147;-55
2023/10/05 10:13:37;;;;;;;2.40;0.80;;;;;;;16.38;100.00;100840.13;105337;1250;60966;-50
2023/10/05 10:16:23;;;;;;;1.60;0.70;;;;;;;16.38;100.00;100841.21;105468;1251;60581;-51
2023/10/05 10:19:08;;;;;;;4.10;0.90;;;;;;;16.39;100.00;100844.77;105245;1251;74056;-53
2023/10/05 10:21:41;;;;;;;2.10;0.60;;;;;;;16.39;100.00;100847.88;105275;1251;67407;-51
2023/10/05 10:24:15;;;;;;;1.30;0.80;;;;;;;16.40;100.00;100840.35;109167;1253;72654;-53
2023/10/05 10:27:07;;;;;;;1.70;0.70;;;;;;;16.44;100.00;100837.41;109195;1256;61203;-54
2023/10/05 10:29:51;;;;;;;2.10;0.80;;;;;;;16.51;100.00;100830.11;109297;1250;58839;-55
2023/10/05 10:32:19;;;;;;;4.10;0.80;;;;;;;16.57;100.00;100827.82;109240;1251;73924;-53
2023/10/05 10:34:52;;;;;;;2.70;1.10;;;;;;;16.62;100.00;100824.29;109214;1250;65821;-53
2023/10/05 10:37:44;;;;;;;2.70;0.70;;;;;;;16.68;100.00;100822.69;109174;1251;73150;-53
2023/10/05 10:42:54;;;;;;;2.00;0.60;;;;;;;16.82;100.00;100809.77;109246;1251;60471;-53
2023/10/05 10:45:28;;;;;;;2.20;0.90;;;;;;;16.87;100.00;100812.69;105267;1256;72559;-52
2023/10/05 10:47:56;;;;;;;3.50;1.20;;;;;;;16.89;100.00;100812.59;108149;1251;65804;-52
2023/10/05 10:50:30;;;;;;;5.00;0.70;;;;;;;16.89;100.00;100810.77;108412;1251;72822;-51
2023/10/05 10:52:58;;;;;;;2.70;0.80;;;;;;;16.89;100.00;100808.61;106021;1253;60572;-52
2023/10/05 10:55:33;;;;;;;3.30;0.80;;;;;;;16.90;100.00;100805.30;109189;1251;58894;-54
2023/10/05 10:58:08;;;;;;;1.40;0.80;;;;;;;16.90;100.00;100801.29;107770;1253;74385;-52
2023/10/05 11:00:54;;;;;;;5.50;0.90;;;;;;;16.92;100.00;100793.58;105526;1256;66899;-54
2023/10/05 11:03:24;;;;;;;2.30;0.80;;;;;;;16.94;100.00;100789.48;105794;1253;72822;-51
2023/10/05 11:05:54;;;;;;;2.00;0.70;;;;;;;16.96;100.00;100782.64;105642;1256;60456;-52
2023/10/05 11:08:22;;;;;;;2.10;0.70;;;;;;;16.98;100.00;100779.42;105642;1256;60697;-52
2023/10/05 11:11:19;;;;;;;1.70;0.70;;;;;;;17.01;100.00;100781.29;105164;1251;73917;-56
2023/10/05 11:13:56;;;;;;;3.00;0.70;;;;;;;17.01;100.00;100776.54;105742;1257;65912;-53
2023/10/05 11:16:34;;;;;;;1.50;0.70;;;;;;;17.02;100.00;100773.17;105153;1251;71784;-54
2023/10/05 11:19:12;;;;;;;1.90;0.60;;;;;;;17.07;100.00;100775.81;105673;1253;60540;-51
2023/10/05 11:22:04;;;;;;;6.00;0.90;;;;;;;17.12;100.00;100773.91;105561;1251;60466;-53
2023/10/05 11:24:37;;;;;;;2.40;0.70;;;;;;;17.15;100.00;100780.59;105665;1253;73942;-54
2023/10/05 11:27:14;;;;;;;3.60;0.70;;;;;;;17.18;100.00;100776.46;105284;1256;65741;-52
2023/10/05 11:29:48;;;;;;;2.10;0.70;;;;;;;17.19;100.00;100770.39;105173;1257;71441;-50
2023/10/05 11:32:23;;;;;;;4.50;0.90;;;;;;;17.21;100.00;100773.91;105684;1259;60542;-53
2023/10/05 11:35:13;;;;;;;2.10;0.80;;;;;;;17.24;100.00;100773.54;105698;1256;60625;-52
2023/10/05 11:37:58;;;;;;;2.50;0.70;;;;;;;17.26;100.00;100766.20;105089;1251;72816;-52
2023/10/05 11:40:34;;;;;;;2.30;0.80;;;;;;;17.28;100.00;100760.95;105144;1256;66950;-52
2023/10/05 11:43:04;;;;;;;1.50;0.70;;;;;;;17.31;100.00;100757.11;105479;1256;72722;-52
2023/10/05 11:45:33;;;;;;;4.90;1.20;;;;;;;17.35;100.00;100761.05;105109;1251;60537;-52
2023/10/05 11:48:11;;;;;;;1.80;0.90;;;;;;;17.38;100.00;100758.48;105176;1251;61069;-52
2023/10/05 11:50:51;;;;;;;1.20;0.70;;;;;;;17.39;100.00;100762.27;105308;1255;74283;-52